Latest Coastal Weather Observations for Moorabbin Airport

IDV60701

Issued at 8:15 pm EST Wednesday 16 April 2014 (issued every 10 minutes, with the page automatically refreshed every 10 minutes)

About coastal observations | Map of coastal stations | Coastal observations for VIC | Marine services | Other Formats
Station Details ID: 086077 Name: MOORABBIN AIRPORT Lat: -37.98 Lon: 145.10 Height: 12.1 m
Data from the previous 72 hours. | See also: Recent months at Moorabbin Airport
Date/Time
EST
Temp

°C
Wind Pressure Rain
since 9am
mm
Weather Cloud Vis
km
Sea
Height
m
Swell
Dir
 
Speed
knots
Gust
knots
hPa Trend Height
m
Period
s
Dir
16/08:00pm 15.1 NE 2 4 1019.7 - 0.0 - Partly cloudy 10 - - - -
16/07:30pm 15.8 E 3 4 1019.7 - 0.0 - Partly cloudy 10 - - - -
16/07:00pm 16.4 S 3 4 1019.6 - 0.0 - Partly cloudy 10 - - - -
16/06:30pm 16.2 SSW 5 6 1019.4 - 0.0 - Partly cloudy 10 - - - -
16/06:00pm 17.0 SSW 6 7 1018.9 - 0.0 - Partly cloudy 10 - - - -
16/05:30pm 17.5 SW 7 9 1018.9 - 0.0 - Partly cloudy 10 - - - -
16/05:00pm 17.8 SW 8 11 1018.6 - 0.0 - Partly cloudy 10 - - - -
16/04:30pm 17.7 SW 8 10 1018.5 - 0.0 - Partly cloudy 10 - - - -
16/04:00pm 18.5 SSW 8 10 1018.2 - 0.0 - Partly cloudy 10 - - - -
16/03:30pm 18.6 SSW 9 11 1018.2 - 0.0 - - 10 - - - -
16/03:00pm 20.0 SSW 8 11 1018.2 - 0.0 - - 10 - - - -
16/02:30pm 19.6 SSW 8 10 1018.3 - 0.0 - - 10 - - - -
16/02:00pm 19.4 S 8 10 1018.5 - 0.0 - - 10 - - - -
16/01:30pm 19.5 SSW 8 9 1018.7 - 0.0 - - 10 - - - -
16/01:00pm 20.6 N 3 6 1019.0 - 0.0 - - 10 - - - -
16/12:30pm 19.6 NNW 4 8 1019.4 - 0.0 - - 10 - - - -
16/12:00pm 18.7 N 5 8 1019.7 - 0.0 - - 10 - - - -
16/11:30am 17.4 N 5 7 1020.2 - 0.0 - - 10 - - - -
16/11:00am 16.5 N 4 7 1020.5 - 0.0 - - 10 - - - -
16/10:48am 15.7 N 6 8 1020.6 - 0.0 - Partly cloudy 10 - - - -
16/10:30am 15.1 N 5 7 1020.9 - 0.0 - Partly cloudy 9 - - - -
16/10:00am 13.9 N 5 8 1021.1 - 0.0 - Cloudy 10 - - - -
16/09:30am 13.4 NNW 6 9 1021.3 - 0.0 - Cloudy 10 - - - -
16/09:00am 13.0 N 7 9 1021.2 - 0.0 - Cloudy 8 - - - -
16/08:49am 12.8 N 6 9 1021.3 - 0.0 - Cloudy 7 - - - -
16/08:30am 12.4 N 6 8 1021.2 - 0.0 - Cloudy 4 - - - -
16/08:00am 11.9 N 6 8 1021.1 - 0.0 - Cloudy 3 - - - -
16/07:30am 11.6 NNE 6 8 1021.0 - 0.0 - Cloudy 2 - - - -
16/07:00am 11.5 NE 5 7 1020.8 - 0.0 - Cloudy 0.9 - - - -
16/06:30am 11.3 NE 5 7 1020.8 - 0.0 - Cloudy 0.9 - - - -
16/06:00am 9.8 NE 3 5 1020.7 - 0.0 - Cloudy 1 - - - -
16/05:56am 9.4 NE 1 4 1020.8 - 0.0 - Cloudy 4 - - - -
16/05:47am 8.0 CALM 0 0 1020.9 - 0.0 - Partly cloudy 10 - - - -
16/05:35am 7.8 CALM 0 3 1020.9 - 0.0 - Partly cloudy 2 - - - -
16/05:30am 8.0 CALM 0 3 1020.9 - 0.0 - Partly cloudy 0.3 - - - -
16/05:04am 7.8 CALM 0 0 1020.8 - 0.0 - - 3 - - - -
16/05:00am 8.4 CALM 0 0 1020.8 - 0.0 - - 10 - - - -
16/04:51am 7.9 CALM 0 0 1020.7 - 0.0 - - 10 - - - -
16/04:32am 8.7 SE 2 3 1020.6 - 0.0 - - 5 - - - -
16/04:30am 8.6 SE 2 3 1020.7 - 0.0 - - 7 - - - -
16/04:00am 7.9 ESE 4 5 1020.4 - 0.0 - - 8 - - - -
16/03:41am 8.5 CALM 0 0 1020.2 - 0.0 - - 10 - - - -
16/03:30am 8.5 CALM 0 0 1020.2 - 0.0 - - 3 - - - -
16/03:10am 9.0 CALM 0 0 1020.3 - 0.0 - - 2 - - - -
16/03:00am 8.9 CALM 0 0 1020.3 - 0.0 - - 10 - - - -
16/02:30am 9.7 CALM 0 0 1020.7 - 0.0 - - 10 - - - -
16/02:00am 9.4 E 0 0 1021.1 - 0.0 - - 10 - - - -
16/01:30am 10.0 ESE 3 4 1021.4 - 0.0 - - 10 - - - -
16/01:00am 10.5 ESE 4 5 1021.5 - 0.0 - - 10 - - - -
16/12:30am 11.1 E 3 6 1021.6 - 0.0 - - 10 - - - -
16/12:00am 11.9 ESE 7 9 1021.5 - 0.0 - - 10 - - - -
 
Date/Time
EST
Temp

°C
Wind Pressure Rain
since 9am
mm
Weather Cloud Vis
km
Sea
Height
m
Swell
Dir
 
Speed
knots
Gust
knots
hPa Trend Height
m
Period
s
Dir
15/11:30pm 12.3 ESE 8 11 1021.7 - 0.0 - - 10 - - - -
15/11:00pm 12.8 ESE 8 11 1021.9 - 0.0 - - 10 - - - -
15/10:30pm 13.0 ESE 8 12 1022.1 - 0.0 - - 10 - - - -
15/10:00pm 13.3 ESE 7 9 1022.5 - 0.0 - - 10 - - - -
15/09:30pm 13.9 ESE 9 13 1022.5 - 0.0 - - 10 - - - -
15/09:00pm 14.4 ESE 13 17 1022.1 - 0.0 - - 10 - - - -
15/08:30pm 14.8 SE 11 15 1022.2 - 0.0 - - 10 - - - -
15/08:00pm 15.1 SE 11 15 1022.3 - 0.0 - - 10 - - - -
15/07:30pm 15.8 SE 10 14 1022.4 - 0.0 - - 10 - - - -
15/07:00pm 15.9 S 9 14 1022.2 - 0.0 - - 10 - - - -
15/06:30pm 16.3 S 10 14 1021.9 - 0.0 - - 10 - - - -
15/06:00pm 16.8 SSE 12 16 1021.6 - 0.0 - - 10 - - - -
15/05:30pm 17.5 SSE 13 17 1021.5 - 0.0 - - 10 - - - -
15/05:00pm 18.3 SSE 13 17 1021.4 - 0.0 - - 10 - - - -
15/04:30pm 18.7 S 14 19 1021.4 - 0.0 - - 10 - - - -
15/04:00pm 18.7 SSE 14 19 1021.5 - 0.0 - Partly cloudy 10 - - - -
15/03:30pm 20.3 SSE 12 16 1021.6 - 0.0 - Partly cloudy 10 - - - -
15/03:00pm 19.9 SSE 11 17 1021.5 - 0.0 - Mostly clear 10 - - - -
15/02:30pm 19.5 SE 11 15 1021.7 - 0.0 - Partly cloudy 10 - - - -
15/02:00pm 19.9 SSE 10 18 1021.7 - 0.0 - Partly cloudy 10 - - - -
15/01:30pm 20.3 SE 11 14 1021.8 - 0.0 - Partly cloudy 10 - - - -
15/01:00pm 19.2 SSE 10 15 1022.2 - 0.0 - Partly cloudy 10 - - - -
15/12:30pm 19.5 SE 13 17 1022.7 - 0.0 - Partly cloudy 10 - - - -
15/12:00pm 19.8 ESE 12 16 1023.0 - 0.0 - Mostly clear 10 - - - -
15/11:30am 18.8 ESE 13 17 1023.4 - 0.0 - - 10 - - - -
15/11:00am 17.9 ESE 12 16 1023.8 - 0.0 - - 10 - - - -
15/10:30am 17.1 SE 9 14 1023.9 - 0.0 - - 10 - - - -
15/10:00am 16.0 SSE 8 10 1024.1 - 0.0 - - 10 - - - -
15/09:30am 14.9 ESE 7 10 1024.2 - 0.0 - - 10 - - - -
15/09:00am 14.0 SE 8 11 1024.1 - 0.0 - - 10 - - - -
15/08:30am 13.1 ESE 6 8 1024.3 - 0.0 - - 10 - - - -
15/08:00am 11.2 ESE 3 5 1024.2 - 0.0 - - 10 - - - -
15/07:30am 9.3 CALM 0 0 1023.9 - 0.0 - - 10 - - - -
15/07:00am 7.7 E 3 4 1023.5 - 0.0 - - 10 - - - -
15/06:30am 8.0 NNE 3 4 1023.3 - 0.0 - - 10 - - - -
15/06:00am 8.1 ESE 2 3 1023.1 - 0.0 - - 10 - - - -
15/05:30am 8.1 SE 3 4 1023.2 - 0.0 - - 8 - - - -
15/05:00am 7.6 CALM 0 0 1023.1 - 0.0 - - 9 - - - -
15/04:30am 8.6 CALM 0 0 1023.0 - 0.0 - - 10 - - - -
15/04:00am 8.8 CALM 0 0 1022.9 - 0.0 - - 10 - - - -
15/03:30am 9.4 CALM 0 0 1023.0 - 0.0 - - 10 - - - -
15/03:00am 9.3 CALM 0 0 1023.0 - 0.0 - - 10 - - - -
15/02:30am 9.6 CALM 0 0 1023.3 - 0.0 - - 10 - - - -
15/02:00am 9.8 ESE 3 4 1023.3 - 0.0 - - 10 - - - -
15/01:30am 9.4 SE 4 5 1023.5 - 0.0 - - 10 - - - -
15/01:00am 9.9 SE 4 5 1023.5 - 0.0 - - 10 - - - -
15/12:30am 10.1 SE 4 5 1023.5 - 0.0 - - 10 - - - -
15/12:00am 10.8 SE 4 5 1023.4 - 0.0 - - 10 - - - -
 
Date/Time
EST
Temp

°C
Wind Pressure Rain
since 9am
mm
Weather Cloud Vis
km
Sea
Height
m
Swell
Dir
 
Speed
knots
Gust
knots
hPa Trend Height
m
Period
s
Dir
14/11:30pm 11.2 ESE 3 4 1023.6 - 0.0 - - 10 - - - -
14/11:00pm 11.2 SE 5 6 1023.7 - 0.0 - - 10 - - - -
14/10:30pm 11.5 ESE 5 6 1023.9 - 0.0 - - 10 - - - -
14/10:00pm 12.3 ESE 6 9 1023.9 - 0.0 - - 10 - - - -
14/09:30pm 12.3 ESE 6 7 1023.8 - 0.0 - - 10 - - - -
14/09:00pm 13.7 SE 8 11 1023.7 - 0.0 - - 10 - - - -
14/08:30pm 14.2 SE 7 10 1023.6 - 0.0 - - 10 - - - -
14/08:00pm 14.5 SSE 8 11 1023.4 - 0.0 - - 10 - - - -
14/07:30pm 15.1 SSE 9 13 1023.3 - 0.0 - - 10 - - - -
14/07:00pm 15.5 S 9 13 1023.2 - 0.0 - - 10 - - - -
14/06:30pm 15.9 S 10 15 1022.8 - 0.0 - - 10 - - - -
14/06:00pm 16.7 SSE 11 15 1022.3 - 0.0 - Mostly clear 10 - - - -
14/05:30pm 17.4 S 12 15 1022.2 - 0.0 - Partly cloudy 10 - - - -
14/05:00pm 18.1 SSE 11 14 1022.0 - 0.0 - Partly cloudy 10 - - - -
14/04:30pm 18.3 SSE 13 17 1022.0 - 0.0 - Partly cloudy 10 - - - -
14/04:00pm 18.2 SSE 12 17 1022.0 - 0.0 - Partly cloudy 10 - - - -
14/03:30pm 18.7 SE 11 15 1022.1 - 0.0 - Partly cloudy 10 - - - -
14/03:00pm 18.8 SE 13 17 1021.8 - 0.0 - Mostly cloudy 10 - - - -
14/02:30pm 19.7 SSE 12 15 1022.0 - 0.0 - Cloudy 10 - - - -
14/02:00pm 19.4 SSE 12 17 1022.1 - 0.0 - Cloudy 10 - - - -
14/01:30pm 19.2 SSE 12 19 1022.2 - 0.0 - Partly cloudy 10 - - - -
14/01:00pm 19.5 ESE 14 20 1022.6 - 0.0 - Partly cloudy 10 - - - -
14/12:30pm 19.7 ESE 12 17 1022.9 - 0.0 - Partly cloudy 10 - - - -
14/12:00pm 19.3 ESE 13 17 1023.2 - 0.0 - Partly cloudy 10 - - - -
14/11:30am 18.3 ESE 12 16 1023.6 - 0.0 - Partly cloudy 10 - - - -
14/11:00am 18.0 ESE 13 17 1023.7 - 0.0 - Partly cloudy 10 - - - -
14/10:30am 17.0 ESE 12 15 1024.0 - 0.0 - - 10 - - - -
14/10:00am 16.7 SE 13 17 1024.1 - 0.0 - - 10 - - - -
14/09:30am 15.6 SE 13 17 1024.2 - 0.0 - - 10 - - - -
14/09:00am 14.2 SSE 9 14 1024.0 - 0.0 - - 10 - - - -
14/08:30am 13.1 SSE 8 9 1024.0 - 0.0 - - 10 - - - -
14/08:00am 11.8 SE 7 9 1023.9 - 0.0 - Partly cloudy 10 - - - -
14/07:30am 10.7 SE 5 7 1023.5 - 0.0 - Partly cloudy 10 - - - -
14/07:00am 10.2 SSE 7 8 1023.1 - 0.0 - - 10 - - - -
14/06:30am 9.4 SE 6 8 1023.0 - 0.0 - - 10 - - - -
14/06:00am 9.4 SE 6 7 1022.8 - 0.0 - - 10 - - - -
14/05:30am 9.5 SSE 5 6 1022.7 - 0.0 - - 10 - - - -
14/05:00am 9.3 SE 5 6 1022.8 - 0.0 - - 10 - - - -
14/04:30am 9.5 SE 4 5 1022.6 - 0.0 - - 10 - - - -
14/04:00am 10.4 SE 5 7 1022.5 - 0.0 - - 10 - - - -
14/03:30am 11.0 SE 7 8 1022.3 - 0.0 - - 10 - - - -
14/03:00am 11.7 SSE 7 9 1022.3 - 0.0 - - 10 - - - -
14/02:30am 12.2 SSE 7 9 1022.4 - 0.0 - Partly cloudy 10 - - - -
14/02:00am 12.3 SSE 7 9 1022.5 - 0.0 - Partly cloudy 10 - - - -
14/01:30am 12.6 SE 10 12 1022.4 - 0.0 - - 10 - - - -
14/01:00am 10.8 SE 6 7 1022.3 - 0.0 - - 10 - - - -
14/12:30am 11.5 SE 7 8 1022.0 - 0.0 - - 10 - - - -
14/12:00am 11.5 SE 6 7 1021.9 - 0.0 - - 10 - - - -
 
Date/Time
EST
Temp

°C
Wind Pressure Rain
since 9am
mm
Weather Cloud Vis
km
Sea
Height
m
Swell
Dir
 
Speed
knots
Gust
knots
hPa Trend Height
m
Period
s
Dir
13/11:30pm 12.4 SE 7 10 1022.3 - 0.0 - - 10 - - - -
13/11:00pm 12.5 SE 7 9 1022.5 - 0.0 - - 10 - - - -
13/10:30pm 13.3 SSE 9 11 1022.6 - 0.0 - - 10 - - - -
13/10:00pm 13.2 SE 9 11 1022.6 - 0.0 - - 10 - - - -
13/09:30pm 13.7 SE 10 14 1022.6 - 0.0 - - 10 - - - -
13/09:00pm 13.7 SE 8 10 1022.4 - 0.0 - - 10 - - - -
13/08:30pm 14.2 SE 9 13 1022.5 - 0.0 - Cloudy 10 - - - -

Other Formats:

Comma delimited format used in spreadsheet applications
http://www.bom.gov.au/fwo/IDV60701/IDV60701.94870.axf

JavaScript Object Notation format (JSON) in row-major order
http://www.bom.gov.au/fwo/IDV60701/IDV60701.94870.json